Terminal Aerodrome Forecast
Issued by NWS

Home | Current Version | Previous Version | Graphics & Text | Print | Product List | Glossary On
Versions: 1 2 3 4 5 6 7 8 9 10 11 12 13 14 15 16 17
078
FTUS43 KICT 160530
TAFSLN
TAF
KSLN 160530Z 1606/1706 VRB04KT P6SM SCT250
     FM161300 14007KT P6SM FEW250
     FM161600 15013KT P6SM SCT250
     FM170500 16013KT P6SM SCT025 OVC100=

USA.gov is the U.S. government's official web portal to all federal, state and local government web resources and services.